createdAt,value
2017-04-22T00:00:49.032Z,65.00
2017-04-22T00:01:48.560Z,64.80
2017-04-22T00:02:47.104Z,64.80
2017-04-22T00:03:45.576Z,65.60
2017-04-22T00:04:44.063Z,65.50
2017-04-22T00:05:42.588Z,65.30
2017-04-22T00:06:41.852Z,65.20
2017-04-22T00:07:40.405Z,65.20
2017-04-22T00:08:38.901Z,65.10
2017-04-22T00:09:38.169Z,66.90
2017-04-22T00:10:36.643Z,66.90
2017-04-22T00:11:35.871Z,65.80
2017-04-22T00:12:34.819Z,65.80
2017-04-22T00:13:34.148Z,65.20
2017-04-22T00:14:33.406Z,65.10
2017-04-22T00:15:32.689Z,64.10
2017-04-22T00:16:31.949Z,65.40
2017-04-22T00:17:31.200Z,64.80
2017-04-22T00:18:29.685Z,64.80
2017-04-22T00:19:28.179Z,64.70
2017-04-22T00:20:26.647Z,64.90
2017-04-22T00:21:25.148Z,64.90
2017-04-22T00:22:23.864Z,64.60
2017-04-22T00:23:23.145Z,64.30
2017-04-22T00:24:21.619Z,64.30
2017-04-22T00:25:20.945Z,65.40
2017-04-22T00:26:19.631Z,65.40
2017-04-22T00:27:18.108Z,64.70
2017-04-22T00:28:17.353Z,65.30
2017-04-22T00:29:15.820Z,65.30
2017-04-22T00:30:14.281Z,64.60
2017-04-22T00:31:12.781Z,64.80
2017-04-22T00:32:12.759Z,65.00
2017-04-22T00:33:11.212Z,64.90
2017-04-22T00:34:10.448Z,65.40
2017-04-22T00:35:09.680Z,65.50
2017-04-22T00:36:08.161Z,65.50
2017-04-22T00:37:06.647Z,64.90
2017-04-22T00:38:05.184Z,65.90
2017-04-22T00:39:03.873Z,65.60
2017-04-22T00:40:02.422Z,66.50
2017-04-22T00:41:00.950Z,66.20
2017-04-22T00:41:59.484Z,65.40
2017-04-22T00:42:57.979Z,65.20
2017-04-22T00:43:57.210Z,65.40
2017-04-22T00:44:55.668Z,65.40
2017-04-22T00:45:55.024Z,66.10
2017-04-22T00:46:53.531Z,66.10
2017-04-22T00:47:52.008Z,66.00
2017-04-22T00:48:50.476Z,66.10
2017-04-22T00:49:50.444Z,65.00
2017-04-22T00:50:48.996Z,65.00
2017-04-22T00:51:49.020Z,65.90
2017-04-22T00:52:48.245Z,65.90
2017-04-22T00:53:47.292Z,65.80
2017-04-22T00:54:45.783Z,65.60
2017-04-22T00:55:44.236Z,66.10
2017-04-22T00:56:42.732Z,66.20
2017-04-22T00:57:41.972Z,66.40
2017-04-22T00:58:40.451Z,66.50
2017-04-22T00:59:39.699Z,67.40
2017-04-22T01:00:38.241Z,67.40
2017-04-22T01:01:37.143Z,68.90
2017-04-22T01:02:35.689Z,68.50
2017-04-22T01:03:34.726Z,70.70
2017-04-22T01:04:33.185Z,70.60
2017-04-22T01:05:31.760Z,70.60
2017-04-22T01:06:31.011Z,72.80
2017-04-22T01:07:29.539Z,73.40
2017-04-22T01:08:28.794Z,75.50
2017-04-22T01:09:27.324Z,75.50
2017-04-22T01:10:25.828Z,75.40
2017-04-22T01:11:25.059Z,75.10
2017-04-22T01:12:24.308Z,77.20
2017-04-22T01:13:23.536Z,77.20
2017-04-22T01:14:22.003Z,77.10
2017-04-22T01:15:20.500Z,78.10
2017-04-22T01:16:19.772Z,81.20
2017-04-22T01:17:18.261Z,81.20
2017-04-22T01:18:16.736Z,81.20
2017-04-22T01:19:16.001Z,82.90
2017-04-22T01:20:14.483Z,82.70
2017-04-22T01:21:12.969Z,83.40
2017-04-22T01:22:11.484Z,84.30
2017-04-22T01:23:09.941Z,85.20
2017-04-22T01:24:08.445Z,86.30
2017-04-22T01:25:07.679Z,85.50
2017-04-22T01:26:06.200Z,85.40
2017-04-22T01:27:04.691Z,85.90
2017-04-22T01:28:03.194Z,87.20
2017-04-22T01:29:01.774Z,87.20
2017-04-22T01:30:00.996Z,87.70
2017-04-22T01:30:59.482Z,87.60
2017-04-22T01:31:57.950Z,89.40
2017-04-22T01:32:56.436Z,89.60
2017-04-22T01:33:55.676Z,91.50
2017-04-22T01:34:54.176Z,91.50
2017-04-22T01:35:53.396Z,90.20
2017-04-22T01:36:52.644Z,90.80
2017-04-22T01:37:51.113Z,90.80
2017-04-22T01:38:49.572Z,92.60
2017-04-22T01:39:48.080Z,91.90
2017-04-22T01:40:47.293Z,92.40
2017-04-22T01:41:45.768Z,92.50
2017-04-22T01:42:44.275Z,92.40
2017-04-22T01:43:42.736Z,92.90
2017-04-22T01:44:41.972Z,94.50
2017-04-22T01:45:40.448Z,93.70
2017-04-22T01:46:39.035Z,93.50
2017-04-22T01:47:37.527Z,93.40
2017-04-22T01:48:36.972Z,93.30
2017-04-22T01:49:35.574Z,93.30
2017-04-22T01:50:34.025Z,94.40
2017-04-22T01:51:33.269Z,93.30
2017-04-22T01:52:31.742Z,93.30
2017-04-22T01:53:31.125Z,94.90
2017-04-22T01:54:29.615Z,95.00
2017-04-22T01:55:28.864Z,96.40
2017-04-22T01:56:27.640Z,96.40
2017-04-22T01:57:26.872Z,94.10
2017-04-22T01:58:25.443Z,94.10
2017-04-22T01:59:24.675Z,94.70
2017-04-22T02:00:23.175Z,94.60
2017-04-22T02:01:21.637Z,95.60
2017-04-22T02:02:20.116Z,95.80
2017-04-22T02:03:18.592Z,97.40
2017-04-22T02:04:17.824Z,98.90
2017-04-22T02:05:16.294Z,98.20
2017-04-22T02:06:14.777Z,98.00
2017-04-22T02:07:13.236Z,98.20
2017-04-22T02:08:11.763Z,98.70
2017-04-22T02:09:10.221Z,98.70
2017-04-22T02:10:09.443Z,99.60
2017-04-22T02:11:07.915Z,99.60
2017-04-22T02:12:07.160Z,99.90
2017-04-22T02:13:05.677Z,99.90
2017-04-22T02:14:04.947Z,99.90
2017-04-22T02:15:03.424Z,99.90
2017-04-22T02:16:01.892Z,99.90
2017-04-22T02:17:00.383Z,99.90
2017-04-22T02:17:58.849Z,99.90
2017-04-22T02:18:58.096Z,99.90
2017-04-22T02:19:57.316Z,99.90
2017-04-22T02:20:56.592Z,99.90
2017-04-22T02:21:55.815Z,99.90
2017-04-22T02:22:54.268Z,99.90
2017-04-22T02:23:53.512Z,99.90
2017-04-22T02:24:51.960Z,99.90
2017-04-22T02:25:50.423Z,99.90
2017-04-22T02:26:48.881Z,99.90
2017-04-22T02:27:47.355Z,99.90
2017-04-22T02:28:45.844Z,99.90
2017-04-22T02:29:45.089Z,99.90
2017-04-22T02:30:44.319Z,99.90
2017-04-22T02:31:43.550Z,99.90
2017-04-22T02:32:42.016Z,99.90
2017-04-22T02:33:41.260Z,99.90
2017-04-22T02:34:39.772Z,99.90
2017-04-22T02:35:39.016Z,99.90
2017-04-22T02:36:37.483Z,99.90
2017-04-22T02:37:36.706Z,99.90
2017-04-22T02:38:35.236Z,99.90
2017-04-22T02:39:33.736Z,99.90
2017-04-22T02:40:32.208Z,99.90
2017-04-22T02:41:30.668Z,99.90
2017-04-22T02:42:29.147Z,99.90
2017-04-22T02:43:27.621Z,99.90
2017-04-22T02:44:26.959Z,99.90
2017-04-22T02:45:25.452Z,99.90
2017-04-22T02:46:23.912Z,99.60
2017-04-22T02:47:22.378Z,99.60
2017-04-22T02:48:20.836Z,99.90
2017-04-22T02:49:19.346Z,99.80
2017-04-22T02:50:18.584Z,99.90
2017-04-22T02:51:17.063Z,99.90
2017-04-22T02:52:15.560Z,99.90
2017-04-22T02:53:14.024Z,99.70
2017-04-22T02:54:12.544Z,99.90
2017-04-22T02:55:11.032Z,99.80
2017-04-22T02:56:09.524Z,99.40
2017-04-22T02:57:08.002Z,99.90
2017-04-22T02:58:06.466Z,99.70
2017-04-22T02:59:05.208Z,99.50
2017-04-22T03:00:04.455Z,99.20
2017-04-22T03:01:03.676Z,97.40
2017-04-22T03:02:02.909Z,99.40
2017-04-22T03:03:01.421Z,98.50
2017-04-22T03:04:00.652Z,99.70
2017-04-22T03:04:59.154Z,99.60
2017-04-22T03:05:57.620Z,98.60
2017-04-22T03:06:56.844Z,99.40
2017-04-22T03:07:55.338Z,99.30
2017-04-22T03:08:54.568Z,99.90
2017-04-22T03:09:53.824Z,99.90
2017-04-22T03:10:52.346Z,99.90
2017-04-22T03:11:50.814Z,99.90
2017-04-22T03:12:49.277Z,99.90
2017-04-22T03:13:47.736Z,99.90
2017-04-22T03:14:46.216Z,99.90
2017-04-22T03:15:44.685Z,99.90
2017-04-22T03:16:43.149Z,99.90
2017-04-22T03:17:41.619Z,99.90
2017-04-22T03:18:40.108Z,99.90
2017-04-22T03:19:38.616Z,99.90
2017-04-22T03:20:37.075Z,99.90
2017-04-22T03:21:36.323Z,99.90
2017-04-22T03:22:34.916Z,99.90
2017-04-22T03:23:33.365Z,99.90
2017-04-22T03:24:32.203Z,99.90
2017-04-22T03:25:30.668Z,99.90
2017-04-22T03:26:29.156Z,99.90
2017-04-22T03:27:27.636Z,99.90
2017-04-22T03:28:26.104Z,99.90
2017-04-22T03:29:24.560Z,99.90
2017-04-22T03:30:23.043Z,99.90
2017-04-22T03:31:22.276Z,99.90
2017-04-22T03:32:20.748Z,99.90
2017-04-22T03:33:19.965Z,99.90
2017-04-22T03:34:18.443Z,99.90
2017-04-22T03:35:17.696Z,99.90
2017-04-22T03:36:16.169Z,99.90
2017-04-22T03:37:14.660Z,99.90
2017-04-22T03:38:13.884Z,99.90
2017-04-22T03:39:12.340Z,99.90
2017-04-22T03:40:10.864Z,99.90
2017-04-22T03:41:10.816Z,99.90
2017-04-22T03:42:09.275Z,99.90
2017-04-22T03:43:08.493Z,99.90
2017-04-22T03:44:07.719Z,99.90
2017-04-22T03:45:06.213Z,99.90
2017-04-22T03:46:04.661Z,96.70
2017-04-22T03:47:03.116Z,97.80
2017-04-22T03:48:01.572Z,99.20
2017-04-22T03:49:00.784Z,95.30
2017-04-22T03:49:59.568Z,95.40
2017-04-22T03:50:58.016Z,97.70
2017-04-22T03:51:56.473Z,95.60
2017-04-22T03:52:54.949Z,97.10
2017-04-22T03:53:54.160Z,97.60
2017-04-22T03:54:52.656Z,97.60
2017-04-22T03:55:51.908Z,97.30
2017-04-22T03:56:50.364Z,97.10
2017-04-22T03:57:48.808Z,98.70
2017-04-22T03:58:48.021Z,98.50
2017-04-22T03:59:46.468Z,98.60
2017-04-22T04:00:44.996Z,98.00
2017-04-22T04:01:44.213Z,99.00
2017-04-22T04:02:42.696Z,99.00
2017-04-22T04:03:41.915Z,99.90
2017-04-22T04:04:41.132Z,99.90
2017-04-22T04:05:39.612Z,99.90
2017-04-22T04:06:38.888Z,99.90
2017-04-22T04:07:38.175Z,99.90
2017-04-22T04:08:36.648Z,99.90
2017-04-22T04:09:35.161Z,99.90
2017-04-22T04:10:33.639Z,99.90
2017-04-22T04:11:32.084Z,99.90
2017-04-22T04:12:31.296Z,99.90
2017-04-22T04:13:29.794Z,99.90
2017-04-22T04:14:28.300Z,99.90
2017-04-22T04:15:27.543Z,99.90
2017-04-22T04:16:26.050Z,99.90
2017-04-22T04:17:25.343Z,99.90
2017-04-22T04:18:23.792Z,99.90
2017-04-22T04:19:23.005Z,99.90
2017-04-22T04:20:21.460Z,99.90
2017-04-22T04:21:20.709Z,99.90
2017-04-22T04:22:19.152Z,99.90
2017-04-22T04:23:17.599Z,99.90
2017-04-22T04:24:16.056Z,99.90
2017-04-22T04:25:14.539Z,99.90
2017-04-22T04:26:13.806Z,99.90
2017-04-22T04:27:13.056Z,99.90
2017-04-22T04:28:12.268Z,99.90
2017-04-22T04:29:10.737Z,99.90
2017-04-22T04:30:10.716Z,99.90
2017-04-22T04:31:09.179Z,99.90
2017-04-22T04:32:07.639Z,99.90
2017-04-22T04:33:06.091Z,99.90
2017-04-22T04:34:04.545Z,99.90
2017-04-22T04:35:02.997Z,99.90
2017-04-22T04:36:02.235Z,99.90
2017-04-22T04:37:00.684Z,99.90
2017-04-22T04:37:59.954Z,99.90
2017-04-22T04:38:59.218Z,99.90
2017-04-22T04:39:57.671Z,99.90
2017-04-22T04:40:56.141Z,99.90
2017-04-22T04:41:54.592Z,99.90
2017-04-22T04:42:53.044Z,99.90
2017-04-22T04:43:51.500Z,99.90
2017-04-22T04:44:49.952Z,99.90
2017-04-22T04:45:48.431Z,99.90
2017-04-22T04:46:47.666Z,99.90
2017-04-22T04:47:46.888Z,99.90
2017-04-22T04:48:45.393Z,99.90
2017-04-22T04:49:43.870Z,99.90
2017-04-22T04:50:42.377Z,99.90
2017-04-22T04:51:40.844Z,99.90
2017-04-22T04:52:39.293Z,99.90
2017-04-22T04:53:38.537Z,99.90
2017-04-22T04:54:37.232Z,99.90
2017-04-22T04:55:36.444Z,99.90
2017-04-22T04:56:34.936Z,99.90
2017-04-22T04:57:33.412Z,99.90
2017-04-22T04:58:31.863Z,99.90
2017-04-22T04:59:30.332Z,99.90
2017-04-22T05:00:28.893Z,99.90
2017-04-22T05:01:27.376Z,99.90
2017-04-22T05:02:25.849Z,99.90
2017-04-22T05:03:24.296Z,99.90
2017-04-22T05:04:22.761Z,99.90
2017-04-22T05:05:21.212Z,99.90
2017-04-22T05:06:19.689Z,99.90
2017-04-22T05:07:18.156Z,99.90
2017-04-22T05:08:16.604Z,99.90
2017-04-22T05:09:15.092Z,99.90
2017-04-22T05:10:13.567Z,99.90
2017-04-22T05:11:12.018Z,99.90
2017-04-22T05:12:10.508Z,99.90
2017-04-22T05:13:09.740Z,99.90
2017-04-22T05:14:08.185Z,99.90
2017-04-22T05:15:06.645Z,99.90
2017-04-22T05:16:05.096Z,99.90
2017-04-22T05:17:03.585Z,99.90
2017-04-22T05:18:02.040Z,98.20
2017-04-22T05:19:01.255Z,99.90
2017-04-22T05:19:59.888Z,99.90
2017-04-22T05:20:58.332Z,98.30
2017-04-22T05:21:56.845Z,98.10
2017-04-22T05:22:56.070Z,97.80
2017-04-22T05:23:55.291Z,97.20
2017-04-22T05:24:53.776Z,96.50
2017-04-22T05:25:52.257Z,96.10
2017-04-22T05:26:50.742Z,96.30
2017-04-22T05:27:49.195Z,91.60
2017-04-22T05:28:48.844Z,93.80
2017-04-22T05:29:47.290Z,93.80
2017-04-22T05:30:45.747Z,92.90
2017-04-22T05:31:45.027Z,94.30
2017-04-22T05:32:44.260Z,91.50
2017-04-22T05:33:43.477Z,92.30
2017-04-22T05:34:41.924Z,92.30
2017-04-22T05:35:40.448Z,92.50
2017-04-22T05:36:39.692Z,93.40
2017-04-22T05:37:38.167Z,93.30
2017-04-22T05:38:36.615Z,90.50
2017-04-22T05:39:35.877Z,90.20
2017-04-22T05:40:34.327Z,90.10
2017-04-22T05:41:33.661Z,91.50
2017-04-22T05:42:32.129Z,91.50
2017-04-22T05:43:30.584Z,91.90
2017-04-22T05:44:29.116Z,92.40
2017-04-22T05:45:27.567Z,91.50
2017-04-22T05:46:26.017Z,90.80
2017-04-22T05:47:24.508Z,90.90
2017-04-22T05:48:23.740Z,90.50
2017-04-22T05:49:22.192Z,90.50
2017-04-22T05:50:22.159Z,94.30
2017-04-22T05:51:20.623Z,94.30
2017-04-22T05:52:19.887Z,94.80
2017-04-22T05:53:18.429Z,94.80
2017-04-22T05:54:17.654Z,95.40
2017-04-22T05:55:16.892Z,94.50
2017-04-22T05:56:16.148Z,90.20
2017-04-22T05:57:14.624Z,89.70
2017-04-22T05:58:13.073Z,90.50
2017-04-22T05:59:11.563Z,91.60
2017-04-22T06:00:10.784Z,85.70
2017-04-22T06:01:09.232Z,85.70
2017-04-22T06:02:07.681Z,85.00
2017-04-22T06:03:06.936Z,83.80
2017-04-22T06:04:05.417Z,83.90
2017-04-22T06:05:04.660Z,85.30
2017-04-22T06:06:03.143Z,85.20
2017-04-22T06:07:02.364Z,85.80
2017-04-22T06:08:01.625Z,85.30
2017-04-22T06:09:00.961Z,85.30
2017-04-22T06:09:59.460Z,85.30
2017-04-22T06:10:57.940Z,83.30
2017-04-22T06:11:56.397Z,83.30
2017-04-22T06:12:54.900Z,82.70
2017-04-22T06:13:53.367Z,79.20
2017-04-22T06:14:52.593Z,79.80
2017-04-22T06:15:51.060Z,80.00
2017-04-22T06:16:49.524Z,79.90
2017-04-22T06:17:48.005Z,79.50
2017-04-22T06:18:46.523Z,79.30
2017-04-22T06:19:45.796Z,80.10
2017-04-22T06:20:45.012Z,79.80
2017-04-22T06:21:43.491Z,79.90
2017-04-22T06:22:42.739Z,80.80
2017-04-22T06:23:41.188Z,80.80
2017-04-22T06:24:39.643Z,78.00
2017-04-22T06:25:38.855Z,81.30
2017-04-22T06:26:37.348Z,81.30
2017-04-22T06:27:35.783Z,80.50
2017-04-22T06:28:34.249Z,80.40
2017-04-22T06:29:32.706Z,79.20
2017-04-22T06:30:31.940Z,77.10
2017-04-22T06:31:30.388Z,77.10
2017-04-22T06:32:28.848Z,74.80
2017-04-22T06:33:28.072Z,77.80
2017-04-22T06:34:27.310Z,74.60
2017-04-22T06:35:25.749Z,74.60
2017-04-22T06:36:24.972Z,75.00
2017-04-22T06:37:23.424Z,74.80
2017-04-22T06:38:21.902Z,77.30
2017-04-22T06:39:21.283Z,78.50
2017-04-22T06:40:20.516Z,78.20
2017-04-22T06:41:18.955Z,78.10
2017-04-22T06:42:17.448Z,77.80
2017-04-22T06:43:16.025Z,78.90
2017-04-22T06:44:14.776Z,80.10
2017-04-22T06:45:13.998Z,81.70
2017-04-22T06:46:12.467Z,81.70
2017-04-22T06:47:12.312Z,80.90
2017-04-22T06:48:12.335Z,80.40
2017-04-22T06:49:13.238Z,74.20
2017-04-22T06:50:12.964Z,80.00
2017-04-22T06:51:12.030Z,79.20
2017-04-22T06:52:11.653Z,76.70
2017-04-22T06:53:10.872Z,76.60
2017-04-22T06:54:10.491Z,75.90
2017-04-22T06:55:12.121Z,75.90
2017-04-22T06:56:12.470Z,72.60
2017-04-22T06:57:12.167Z,77.00
2017-04-22T06:58:11.048Z,77.20
2017-04-22T06:59:10.611Z,75.80
2017-04-22T07:00:10.295Z,73.70
2017-04-22T07:01:10.215Z,74.00
2017-04-22T07:02:09.831Z,73.80
2017-04-22T07:03:08.328Z,73.80
2017-04-22T07:04:08.341Z,75.10
2017-04-22T07:05:08.436Z,73.20
2017-04-22T07:06:09.312Z,68.60
2017-04-22T07:07:08.123Z,68.40
2017-04-22T07:08:08.641Z,68.20
2017-04-22T07:09:08.188Z,70.50
2017-04-22T07:10:07.187Z,70.30
2017-04-22T07:11:06.218Z,67.70
2017-04-22T07:12:05.875Z,68.60
2017-04-22T07:13:05.882Z,69.50
2017-04-22T07:14:04.877Z,69.40
2017-04-22T07:15:03.361Z,68.10
2017-04-22T07:16:02.417Z,68.10
2017-04-22T07:17:01.593Z,66.20
2017-04-22T07:18:00.744Z,63.90
2017-04-22T07:19:00.272Z,64.50
2017-04-22T07:20:00.142Z,64.90
2017-04-22T07:20:59.196Z,64.80
2017-04-22T07:21:57.724Z,63.10
2017-04-22T07:22:56.848Z,61.30
2017-04-22T07:23:56.194Z,56.60
2017-04-22T07:24:56.111Z,56.80
2017-04-22T07:25:55.459Z,56.60
2017-04-22T07:26:55.129Z,53.50
2017-04-22T07:27:54.141Z,53.60
2017-04-22T07:28:53.368Z,55.30
2017-04-22T07:29:53.875Z,54.60
2017-04-22T07:30:52.947Z,54.40
2017-04-22T07:31:51.533Z,49.60
2017-04-22T07:32:50.756Z,53.30
2017-04-22T07:33:49.302Z,51.60
2017-04-22T07:34:49.092Z,56.70
2017-04-22T07:35:49.049Z,58.20
2017-04-22T07:36:48.209Z,57.50
2017-04-22T07:37:47.354Z,50.50
2017-04-22T07:38:46.575Z,57.90
2017-04-22T07:39:46.648Z,58.60
2017-04-22T07:40:45.104Z,58.70
2017-04-22T07:41:44.248Z,59.60
2017-04-22T07:42:43.573Z,62.00
2017-04-22T07:43:43.349Z,59.90
2017-04-22T07:44:41.862Z,60.30
2017-04-22T07:45:41.035Z,59.00
2017-04-22T07:46:39.510Z,58.20
2017-04-22T07:47:38.926Z,59.60
2017-04-22T07:48:38.664Z,61.10
2017-04-22T07:49:38.573Z,60.90
2017-04-22T07:50:37.032Z,60.80
2017-04-22T07:51:36.917Z,61.20
2017-04-22T07:52:35.413Z,61.20
2017-04-22T07:53:33.880Z,63.90
2017-04-22T07:54:32.649Z,65.30
2017-04-22T07:55:31.972Z,62.40
2017-04-22T07:56:31.241Z,62.20
2017-04-22T07:57:30.188Z,58.30
2017-04-22T07:58:28.729Z,57.90
2017-04-22T07:59:27.360Z,57.40
2017-04-22T08:00:26.539Z,55.60
2017-04-22T08:01:25.575Z,54.20
2017-04-22T08:02:31.416Z,48.90
2017-04-22T08:03:29.877Z,49.00
2017-04-22T08:04:29.127Z,49.00
2017-04-22T08:05:28.387Z,50.10
2017-04-22T08:06:27.628Z,45.30
2017-04-22T08:07:26.856Z,42.80
2017-04-22T08:08:25.316Z,42.60
2017-04-22T08:09:23.775Z,41.10
2017-04-22T08:10:22.268Z,42.20
2017-04-22T08:11:21.494Z,42.70
2017-04-22T08:12:20.708Z,42.30
2017-04-22T08:13:19.172Z,42.20
2017-04-22T08:14:17.639Z,42.40
2017-04-22T08:15:16.155Z,41.90
2017-04-22T08:16:15.428Z,44.40
2017-04-22T08:17:13.891Z,44.40
2017-04-22T08:18:12.868Z,46.80
2017-04-22T08:19:11.317Z,48.10
2017-04-22T08:20:09.820Z,51.30
2017-04-22T08:21:09.081Z,53.90
2017-04-22T08:22:07.520Z,54.00
2017-04-22T08:23:05.977Z,54.70
2017-04-22T08:24:04.431Z,50.10
2017-04-22T08:25:03.201Z,54.40
2017-04-22T08:26:01.674Z,54.00
2017-04-22T08:27:00.900Z,52.00
2017-04-22T08:28:00.180Z,57.30
2017-04-22T08:28:59.392Z,56.90
2017-04-22T08:29:57.949Z,57.00
2017-04-22T08:30:57.461Z,58.60
2017-04-22T08:31:56.067Z,58.50
2017-04-22T08:32:55.364Z,59.20
2017-04-22T08:33:53.825Z,59.10
2017-04-22T08:34:52.372Z,51.50
2017-04-22T08:35:50.868Z,53.00
2017-04-22T08:36:50.137Z,45.10
2017-04-22T08:37:48.617Z,45.20
2017-04-22T08:38:47.144Z,44.50
2017-04-22T08:39:45.609Z,46.90
2017-04-22T08:40:44.145Z,49.40
2017-04-22T08:41:42.635Z,45.40
2017-04-22T08:42:41.121Z,42.20
2017-04-22T08:43:40.352Z,40.90
2017-04-22T08:44:38.845Z,40.80
2017-04-22T08:45:37.332Z,39.70
2017-04-22T08:46:35.816Z,41.20
2017-04-22T08:47:34.260Z,41.80
2017-04-22T08:48:33.115Z,39.70
2017-04-22T08:49:31.696Z,40.60
2017-04-22T08:50:30.562Z,43.10
2017-04-22T08:51:29.076Z,43.70
2017-04-22T08:52:28.315Z,43.20
2017-04-22T08:53:26.780Z,43.20
2017-04-22T08:54:25.232Z,42.80
2017-04-22T08:55:24.464Z,42.00
2017-04-22T08:56:23.033Z,41.90
2017-04-22T08:57:22.299Z,48.20
2017-04-22T08:58:20.754Z,47.80
2017-04-22T08:59:19.277Z,46.70
2017-04-22T09:00:17.752Z,45.90
2017-04-22T09:01:16.243Z,43.80
2017-04-22T09:02:14.718Z,42.90
2017-04-22T09:03:13.946Z,45.90
2017-04-22T09:04:13.193Z,44.10
2017-04-22T09:05:11.659Z,44.10
2017-04-22T09:06:10.158Z,41.70
2017-04-22T09:07:08.612Z,43.00
2017-04-22T09:08:07.832Z,46.20
2017-04-22T09:09:07.063Z,47.60
2017-04-22T09:10:06.279Z,46.50
2017-04-22T09:11:04.780Z,46.90
2017-04-22T09:12:04.029Z,46.90
2017-04-22T09:13:02.481Z,46.90
2017-04-22T09:14:00.995Z,48.10
2017-04-22T09:14:59.440Z,48.50
2017-04-22T09:15:58.320Z,46.90
2017-04-22T09:16:56.781Z,48.80
2017-04-22T09:17:55.309Z,49.20
2017-04-22T09:18:54.539Z,50.00
2017-04-22T09:19:53.006Z,49.90
2017-04-22T09:20:52.252Z,48.80
2017-04-22T09:21:50.776Z,48.90
2017-04-22T09:22:49.224Z,49.10
2017-04-22T09:23:48.440Z,50.10
2017-04-22T09:24:46.897Z,50.20
2017-04-22T09:25:45.348Z,48.30
2017-04-22T09:26:45.340Z,53.90
2017-04-22T09:27:43.793Z,53.20
2017-04-22T09:28:42.252Z,51.80
2017-04-22T09:29:40.781Z,51.60
2017-04-22T09:30:40.036Z,51.40
2017-04-22T09:31:38.500Z,51.30
2017-04-22T09:32:36.957Z,51.60
2017-04-22T09:33:35.428Z,50.30
2017-04-22T09:34:33.890Z,51.10
2017-04-22T09:35:32.374Z,53.50
2017-04-22T09:36:31.620Z,52.90
2017-04-22T09:37:30.306Z,52.80
2017-04-22T09:38:28.764Z,50.70
2017-04-22T09:39:27.376Z,49.80
2017-04-22T09:40:25.837Z,47.80
2017-04-22T09:41:25.387Z,50.10
2017-04-22T09:42:23.841Z,50.10
2017-04-22T09:43:23.073Z,49.90
2017-04-22T09:44:22.301Z,48.90
2017-04-22T09:45:20.756Z,49.40
2017-04-22T09:46:19.256Z,48.90
2017-04-22T09:47:17.772Z,47.30
2017-04-22T09:48:16.275Z,48.90
2017-04-22T09:49:15.622Z,47.80
2017-04-22T09:50:14.101Z,47.80
2017-04-22T09:51:12.691Z,49.30
2017-04-22T09:52:11.494Z,49.20
2017-04-22T09:53:12.446Z,52.20
2017-04-22T09:54:11.265Z,52.10
2017-04-22T09:55:09.725Z,50.60
2017-04-22T09:56:08.459Z,49.80
2017-04-22T09:57:07.067Z,50.80
2017-04-22T09:58:06.384Z,49.10
2017-04-22T09:59:05.052Z,49.10
2017-04-22T10:00:03.788Z,52.10
2017-04-22T10:01:03.314Z,51.40
2017-04-22T10:02:02.652Z,51.30
2017-04-22T10:03:01.101Z,51.20
2017-04-22T10:03:59.648Z,53.10
2017-04-22T10:04:58.365Z,53.20
2017-04-22T10:05:57.156Z,52.80
2017-04-22T10:06:56.648Z,56.40
2017-04-22T10:07:55.105Z,56.40
2017-04-22T10:08:54.630Z,58.40
2017-04-22T10:09:53.781Z,58.50
2017-04-22T10:10:53.009Z,57.00
2017-04-22T10:11:51.813Z,57.00
2017-04-22T10:12:51.284Z,55.20
2017-04-22T10:13:50.515Z,53.90
2017-04-22T10:14:49.097Z,54.00
2017-04-22T10:15:48.529Z,53.30
2017-04-22T10:16:47.049Z,53.20
2017-04-22T10:17:46.315Z,48.40
2017-04-22T10:18:45.721Z,46.60
2017-04-22T10:19:44.246Z,46.60
2017-04-22T10:20:42.817Z,46.50
2017-04-22T10:21:42.133Z,44.30
2017-04-22T10:22:40.751Z,44.20
2017-04-22T10:23:39.426Z,45.60
2017-04-22T10:24:38.110Z,44.70
2017-04-22T10:25:36.809Z,44.70
2017-04-22T10:26:36.313Z,50.40
2017-04-22T10:27:35.165Z,49.70
2017-04-22T10:28:34.780Z,51.50
2017-04-22T10:29:33.509Z,51.70
2017-04-22T10:30:32.018Z,50.20
2017-04-22T10:31:30.671Z,49.30
2017-04-22T10:32:29.258Z,50.50
2017-04-22T10:33:27.721Z,51.60
2017-04-22T10:34:27.040Z,49.70
2017-04-22T10:35:25.611Z,49.70
2017-04-22T10:36:24.856Z,51.50
2017-04-22T10:37:23.462Z,47.90
2017-04-22T10:38:22.708Z,47.90
2017-04-22T10:39:21.270Z,47.90
2017-04-22T10:40:20.577Z,45.30
2017-04-22T10:41:19.109Z,45.10
2017-04-22T10:42:18.862Z,40.30
2017-04-22T10:43:17.505Z,40.30
2017-04-22T10:44:16.031Z,39.70
2017-04-22T10:45:15.303Z,38.30
2017-04-22T10:46:13.809Z,38.30
2017-04-22T10:47:12.656Z,40.00
2017-04-22T10:48:12.050Z,38.30
2017-04-22T10:49:11.529Z,38.80
2017-04-22T10:50:10.000Z,38.80
2017-04-22T10:51:09.356Z,39.40
2017-04-22T10:52:07.875Z,39.40
2017-04-22T10:53:06.412Z,39.70
2017-04-22T10:54:05.668Z,40.50
2017-04-22T10:55:05.012Z,40.50
2017-04-22T10:56:03.557Z,40.50
2017-04-22T10:57:02.930Z,39.80
2017-04-22T10:58:01.456Z,39.80
2017-04-22T10:59:00.734Z,42.40
2017-04-22T10:59:59.408Z,42.30
2017-04-22T11:00:57.932Z,41.40
2017-04-22T11:01:57.230Z,42.60
2017-04-22T11:02:55.813Z,42.60
2017-04-22T11:03:54.288Z,42.70
2017-04-22T11:04:52.839Z,40.70
2017-04-22T11:05:51.382Z,42.50
2017-04-22T11:06:50.608Z,40.80
2017-04-22T11:07:49.094Z,40.70
2017-04-22T11:08:48.363Z,42.60
2017-04-22T11:09:46.968Z,42.60
2017-04-22T11:10:46.228Z,40.60
2017-04-22T11:11:44.692Z,40.00
2017-04-22T11:12:43.384Z,42.20
2017-04-22T11:13:41.864Z,40.70
2017-04-22T11:14:41.093Z,43.10
2017-04-22T11:15:40.390Z,42.20
2017-04-22T11:16:38.856Z,42.10
2017-04-22T11:17:37.357Z,41.00
2017-04-22T11:18:36.612Z,40.30
2017-04-22T11:19:35.848Z,39.30
2017-04-22T11:20:35.082Z,39.30
2017-04-22T11:21:34.368Z,39.90
2017-04-22T11:22:32.909Z,39.90
2017-04-22T11:23:32.023Z,36.30
2017-04-22T11:24:30.504Z,36.10
2017-04-22T11:25:29.039Z,38.20
2017-04-22T11:26:27.688Z,37.60
2017-04-22T11:27:26.925Z,36.60
2017-04-22T11:28:25.464Z,36.50
2017-04-22T11:29:24.122Z,35.20
2017-04-22T11:30:22.736Z,35.90
2017-04-22T11:31:21.980Z,37.50
2017-04-22T11:32:20.533Z,37.50
2017-04-22T11:33:20.047Z,38.50
2017-04-22T11:34:18.584Z,39.40
2017-04-22T11:35:17.096Z,37.60
2017-04-22T11:36:15.620Z,38.20
2017-04-22T11:37:14.965Z,38.50
2017-04-22T11:38:13.661Z,38.50
2017-04-22T11:39:12.157Z,37.60
2017-04-22T11:40:10.684Z,37.70
2017-04-22T11:41:10.122Z,38.30
2017-04-22T11:42:08.800Z,38.30
2017-04-22T11:43:08.052Z,38.90
2017-04-22T11:44:06.638Z,38.80
2017-04-22T11:45:05.131Z,37.50
2017-04-22T11:46:04.381Z,37.10
2017-04-22T11:47:02.894Z,37.00
2017-04-22T11:48:02.168Z,37.00
2017-04-22T11:49:00.783Z,37.00
2017-04-22T11:49:59.360Z,37.70
2017-04-22T11:50:57.818Z,39.40
2017-04-22T11:51:56.277Z,39.50
2017-04-22T11:52:54.728Z,38.10
2017-04-22T11:54:53.553Z,37.60
2017-04-22T11:55:52.858Z,37.40
2017-04-22T11:56:51.342Z,37.30
2017-04-22T11:57:50.571Z,39.80
2017-04-22T11:58:49.815Z,41.30
2017-04-22T11:59:48.340Z,41.30
2017-04-22T12:00:47.674Z,39.10
2017-04-22T12:01:46.195Z,38.80
2017-04-22T12:02:44.689Z,38.70
2017-04-22T12:03:43.184Z,39.10
2017-04-22T12:04:41.640Z,39.40
2017-04-22T12:05:40.112Z,37.00
2017-04-22T12:06:39.462Z,41.70
2017-04-22T12:07:37.940Z,41.80
2017-04-22T12:08:36.464Z,39.10
2017-04-22T12:09:35.728Z,38.30
2017-04-22T12:10:34.305Z,38.30
2017-04-22T12:11:32.884Z,38.20
2017-04-22T12:12:32.192Z,38.30
2017-04-22T12:13:31.428Z,38.70
2017-04-22T12:14:29.901Z,38.70
2017-04-22T12:15:28.412Z,38.80
2017-04-22T12:16:27.636Z,38.40
2017-04-22T12:17:26.133Z,38.30
2017-04-22T12:18:25.373Z,43.80
2017-04-22T12:19:23.893Z,43.90
2017-04-22T12:20:22.362Z,46.90
2017-04-22T12:21:20.823Z,48.60
2017-04-22T12:22:19.272Z,55.00
2017-04-22T12:23:17.761Z,58.00
2017-04-22T12:24:16.259Z,63.10
2017-04-22T12:25:16.240Z,61.50
2017-04-22T12:26:14.766Z,61.20
2017-04-22T12:27:14.056Z,65.50
2017-04-22T12:28:12.496Z,65.30
2017-04-22T12:29:11.069Z,64.30
2017-04-22T12:30:09.647Z,65.90
2017-04-22T12:31:08.856Z,68.90
2017-04-22T12:32:09.564Z,69.60
2017-04-22T12:33:08.788Z,71.60
2017-04-22T12:34:07.581Z,71.70
2017-04-22T12:35:07.357Z,70.50
2017-04-22T12:36:06.621Z,69.00
2017-04-22T12:37:05.127Z,69.00
2017-04-22T12:38:06.068Z,68.10
2017-04-22T12:39:06.087Z,70.00